Time;durP1;ratioP1;P1;durP2;ratioP2;P2;SDS_P1;SDS_P2;PMS_P1;PMS_P2;Temp;Humidity;BMP_temperature;BMP_pressure;BME280_temperature;BME280_humidity;BME280_pressure;Samples;Min_cycle;Max_cycle;Signal;HPM_P1;HPM_P2
2021/01/29 00:01:18;;;;;;;1.73;1.63;;;13.40;80.70;;;;;;4980561;28;20191;-89
2021/01/29 00:03:44;;;;;;;3.73;2.20;;;13.40;80.70;;;;;;4979724;28;20179;-89
2021/01/29 00:06:10;;;;;;;3.07;2.47;;;13.30;80.60;;;;;;4980550;28;20915;-88
2021/01/29 00:08:36;;;;;;;2.80;1.20;;;13.30;80.20;;;;;;4988516;28;20469;-88
2021/01/29 00:11:03;;;;;;;0.97;0.77;;;13.10;80.10;;;;;;4980104;28;20551;-88
2021/01/29 00:13:30;;;;;;;2.00;1.73;;;13.00;80.30;;;;;;4979107;28;20426;-88
2021/01/29 00:15:56;;;;;;;2.95;1.00;;;13.00;80.90;;;;;;4978982;28;20666;-89
2021/01/29 00:18:22;;;;;;;1.45;1.35;;;13.00;81.40;;;;;;4979111;28;20182;-88
2021/01/29 00:20:49;;;;;;;5.53;1.30;;;13.00;81.60;;;;;;4978148;28;20258;-89
2021/01/29 00:23:16;;;;;;;0.80;0.80;;;13.00;82.00;;;;;;4978564;28;20183;-88
2021/01/29 00:25:46;;;;;;;1.15;0.80;;;13.00;82.00;;;;;;4970281;28;20223;-89
2021/01/29 00:28:12;;;;;;;0.90;0.90;;;13.00;82.00;;;;;;4964361;28;20519;-88
2021/01/29 00:30:39;;;;;;;4.70;2.07;;;12.90;82.10;;;;;;4964343;28;20183;-88
2021/01/29 00:33:07;;;;;;;0.80;0.80;;;12.80;82.10;;;;;;4960103;28;20416;-88
2021/01/29 00:35:35;;;;;;;0.68;0.68;;;12.80;82.50;;;;;;4960123;28;20180;-87
2021/01/29 00:38:02;;;;;;;2.50;2.40;;;12.90;82.80;;;;;;4959611;28;20183;-88
2021/01/29 00:40:28;;;;;;;1.05;0.95;;;12.80;82.80;;;;;;4967278;28;20271;-87
2021/01/29 00:42:54;;;;;;;8.10;1.50;;;12.80;83.00;;;;;;4968658;28;20164;-88
2021/01/29 00:45:22;;;;;;;1.00;1.00;;;12.80;83.00;;;;;;4980205;28;20285;-88
2021/01/29 00:47:47;;;;;;;1.15;1.05;;;12.70;83.20;;;;;;4999965;28;20427;-88
2021/01/29 00:50:14;;;;;;;2.97;1.27;;;12.70;83.50;;;;;;4978126;28;20263;-87
2021/01/29 00:52:40;;;;;;;0.70;0.70;;;12.60;84.30;;;;;;4967128;28;20211;-89
2021/01/29 00:55:07;;;;;;;1.50;1.40;;;12.50;84.00;;;;;;4960466;28;20237;-89
2021/01/29 00:57:32;;;;;;;1.00;0.88;;;12.50;84.20;;;;;;4963865;28;20411;-88
2021/01/29 00:59:58;;;;;;;1.00;0.90;;;12.50;84.40;;;;;;4969591;28;20234;-88
2021/01/29 01:02:24;;;;;;;1.63;1.53;;;12.40;84.70;;;;;;4962264;28;20259;-88
2021/01/29 01:04:50;;;;;;;1.20;1.10;;;12.30;85.00;;;;;;4960962;28;20419;-89
2021/01/29 01:07:16;;;;;;;1.40;1.30;;;12.40;85.40;;;;;;4959589;28;20212;-89
2021/01/29 01:09:44;;;;;;;1.40;1.33;;;12.40;85.40;;;;;;4959425;28;20188;-89
2021/01/29 01:12:09;;;;;;;0.60;0.55;;;12.50;85.70;;;;;;4974154;28;20192;-91
2021/01/29 01:14:35;;;;;;;0.70;0.70;;;12.40;85.50;;;;;;4982952;28;20184;-90
2021/01/29 01:17:01;;;;;;;1.23;1.23;;;12.50;85.60;;;;;;4982847;28;20175;-89
2021/01/29 01:19:27;;;;;;;5.00;0.70;;;12.60;85.80;;;;;;4982355;28;20235;-88
2021/01/29 01:21:53;;;;;;;0.70;0.70;;;12.60;85.60;;;;;;4978877;28;20203;-88
2021/01/29 01:24:18;;;;;;;1.17;1.13;;;12.60;85.60;;;;;;4977257;28;20184;-88
2021/01/29 01:26:44;;;;;;;1.47;0.80;;;12.70;86.00;;;;;;4975167;28;20201;-90
2021/01/29 01:29:10;;;;;;;1.67;1.57;;;12.90;85.80;;;;;;4971808;28;20183;-88
2021/01/29 01:31:35;;;;;;;2.00;1.43;;;12.80;84.70;;;;;;4958018;28;20200;-88
2021/01/29 01:34:01;;;;;;;0.70;0.70;;;12.90;85.00;;;;;;4959056;28;20179;-90
2021/01/29 01:36:27;;;;;;;0.60;0.60;;;12.90;84.40;;;;;;4959511;28;20176;-89
2021/01/29 01:38:52;;;;;;;0.80;0.80;;;12.90;84.40;;;;;;4959449;28;20235;-88
2021/01/29 01:41:18;;;;;;;0.60;0.60;;;12.90;84.20;;;;;;4958993;28;20192;-87
2021/01/29 01:43:44;;;;;;;0.77;0.77;;;12.90;83.80;;;;;;4959335;28;20527;-87
2021/01/29 01:46:12;;;;;;;1.33;0.70;;;12.90;84.00;;;;;;4958307;28;20318;-87
2021/01/29 01:48:47;;;;;;;1.17;0.90;;;13.00;83.90;;;;;;4968824;28;20427;-86
2021/01/29 01:51:21;;;;;;;0.80;0.80;;;13.00;83.90;;;;;;4959827;28;20261;-87
2021/01/29 01:53:49;;;;;;;1.77;1.00;;;12.90;83.50;;;;;;4976260;28;20164;-89
2021/01/29 01:56:25;;;;;;;1.23;1.23;;;12.90;83.50;;;;;;4961672;28;20242;-88
2021/01/29 01:59:00;;;;;;;1.33;1.23;;;12.80;83.30;;;;;;4963279;28;20207;-88
2021/01/29 02:01:27;;;;;;;3.08;0.90;;;12.80;83.80;;;;;;4962334;28;20190;-88
2021/01/29 02:03:55;;;;;;;0.60;0.60;;;12.80;84.10;;;;;;4978687;28;20243;-89
2021/01/29 02:06:22;;;;;;;0.60;0.60;;;12.90;84.20;;;;;;4962287;28;20184;-87
2021/01/29 02:08:49;;;;;;;0.70;0.70;;;13.00;84.60;;;;;;4962631;28;20542;-88
2021/01/29 02:11:19;;;;;;;0.70;0.70;;;13.10;84.70;;;;;;4963901;28;20210;-89
2021/01/29 02:13:45;;;;;;;0.60;0.60;;;13.20;84.70;;;;;;4962597;28;20188;-88
2021/01/29 02:16:20;;;;;;;0.63;0.63;;;13.20;84.70;;;;;;4962378;28;20195;-89
2021/01/29 02:19:01;;;;;;;0.88;0.80;;;13.30;84.80;;;;;;4979396;28;20865;-88
2021/01/29 02:21:54;;;;;;;0.65;0.65;;;13.30;84.50;;;;;;4961255;28;20199;-88
2021/01/29 02:24:26;;;;;;;0.90;0.80;;;13.30;84.40;;;;;;4961278;28;20302;-88
2021/01/29 02:27:32;;;;;;;0.70;0.70;;;13.40;84.10;;;;;;4978277;28;20551;-88
2021/01/29 02:30:12;;;;;;;0.60;0.60;;;13.40;84.00;;;;;;4970646;28;20226;-89
2021/01/29 02:33:01;;;;;;;4.53;0.77;;;13.40;84.00;;;;;;4980386;28;20285;-88
2021/01/29 02:36:04;;;;;;;0.75;0.75;;;13.50;84.10;;;;;;4933943;28;20183;-88
2021/01/29 02:38:57;;;;;;;2.85;0.98;;;13.50;84.00;;;;;;4985011;28;20174;-88
2021/01/29 02:41:32;;;;;;;1.20;0.70;;;13.50;83.60;;;;;;4982745;28;20702;-88
2021/01/29 02:44:12;;;;;;;0.60;0.60;;;13.50;83.50;;;;;;4980439;28;20193;-89
2021/01/29 02:46:54;;;;;;;0.70;0.70;;;13.50;83.40;;;;;;4977108;28;20655;-88
2021/01/29 02:49:41;;;;;;;0.70;0.70;;;13.50;83.50;;;;;;4978322;28;20592;-88
2021/01/29 02:52:29;;;;;;;0.70;0.70;;;13.50;83.60;;;;;;4978406;28;20187;-89
2021/01/29 02:55:21;;;;;;;0.90;0.90;;;13.30;82.50;;;;;;4961569;28;20190;-88
2021/01/29 02:58:09;;;;;;;0.70;0.70;;;13.30;82.90;;;;;;4957928;28;20686;-88
2021/01/29 03:01:05;;;;;;;0.70;0.70;;;13.30;83.30;;;;;;4961233;28;20211;-88
2021/01/29 03:03:46;;;;;;;0.60;0.60;;;13.40;83.50;;;;;;4961789;28;20172;-88
2021/01/29 03:06:34;;;;;;;0.70;0.70;;;13.40;83.20;;;;;;4961033;28;20187;-88
2021/01/29 03:09:09;;;;;;;0.75;0.75;;;13.30;83.40;;;;;;4960413;28;20215;-87
2021/01/29 03:11:50;;;;;;;0.60;0.50;;;13.40;83.50;;;;;;4960314;28;20683;-88
2021/01/29 03:14:23;;;;;;;0.60;0.55;;;13.40;83.60;;;;;;4961185;28;20194;-88
2021/01/29 03:17:17;;;;;;;0.80;0.80;;;13.50;83.50;;;;;;4961538;28;20203;-88
2021/01/29 03:19:59;;;;;;;0.80;0.80;;;13.50;83.60;;;;;;4978953;28;20206;-88
2021/01/29 03:22:50;;;;;;;0.60;0.55;;;13.50;83.30;;;;;;4961286;28;20286;-88
2021/01/29 03:25:26;;;;;;;0.60;0.50;;;13.40;83.00;;;;;;4956244;28;20686;-88
2021/01/29 03:27:59;;;;;;;6.15;0.90;;;13.40;83.30;;;;;;4979529;28;20233;-88
2021/01/29 03:30:29;;;;;;;0.70;0.70;;;13.40;83.30;;;;;;4971747;28;20184;-88
2021/01/29 03:32:58;;;;;;;1.08;0.80;;;13.40;83.30;;;;;;4961297;28;20247;-88
2021/01/29 03:35:36;;;;;;;0.70;0.70;;;13.40;83.30;;;;;;4960716;28;20180;-88
2021/01/29 03:38:27;;;;;;;1.02;0.70;;;13.50;83.50;;;;;;4960147;28;20622;-88
2021/01/29 03:41:19;;;;;;;0.90;0.70;;;13.50;83.60;;;;;;4961013;28;20207;-88
2021/01/29 03:44:15;;;;;;;1.45;1.33;;;13.10;82.00;;;;;;4961479;28;20596;-88
2021/01/29 03:46:44;;;;;;;0.60;0.50;;;13.20;82.80;;;;;;4961129;28;20218;-88
2021/01/29 03:49:19;;;;;;;0.60;0.50;;;13.20;83.10;;;;;;4960414;28;20648;-89
2021/01/29 03:52:18;;;;;;;1.65;0.85;;;13.30;83.30;;;;;;4960351;28;20207;-89
2021/01/29 03:55:03;;;;;;;0.90;0.90;;;13.30;83.20;;;;;;4977786;28;20190;-88
2021/01/29 03:57:33;;;;;;;0.77;0.77;;;13.40;83.20;;;;;;4960490;28;20219;-89
2021/01/29 04:00:06;;;;;;;1.00;0.90;;;13.30;83.20;;;;;;4960184;28;20215;-89
2021/01/29 04:03:05;;;;;;;0.73;0.73;;;13.30;83.10;;;;;;4960472;28;20199;-89
2021/01/29 04:05:44;;;;;;;0.95;0.82;;;13.30;83.00;;;;;;4960396;28;20191;-89
2021/01/29 04:08:29;;;;;;;0.60;0.60;;;13.30;83.00;;;;;;4960063;28;20611;-89
2021/01/29 04:10:58;;;;;;;0.80;0.80;;;13.20;82.60;;;;;;4965328;28;20227;-89
2021/01/29 04:13:34;;;;;;;1.23;1.17;;;13.20;82.70;;;;;;4976490;28;20208;-88
2021/01/29 04:16:02;;;;;;;2.00;1.40;;;13.20;82.80;;;;;;4972636;28;20259;-88
2021/01/29 04:19:06;;;;;;;1.88;0.90;;;13.20;82.80;;;;;;4969844;28;20180;-89
2021/01/29 04:21:56;;;;;;;1.10;1.02;;;13.20;82.70;;;;;;4951459;28;20215;-89
2021/01/29 04:24:32;;;;;;;0.60;0.60;;;13.20;82.40;;;;;;4968424;28;20195;-89
2021/01/29 04:27:21;;;;;;;0.60;0.60;;;13.10;82.40;;;;;;4980212;28;20190;-88
2021/01/29 04:29:59;;;;;;;0.80;0.80;;;13.10;82.40;;;;;;4961603;28;20187;-88
2021/01/29 04:32:30;;;;;;;0.68;0.68;;;13.10;82.50;;;;;;4961664;28;20211;-88
2021/01/29 04:34:58;;;;;;;1.77;1.67;;;13.10;82.50;;;;;;4977710;28;20164;-88
2021/01/29 04:37:32;;;;;;;0.70;0.70;;;13.10;82.40;;;;;;4976748;28;20183;-89
2021/01/29 04:40:02;;;;;;;0.60;0.55;;;13.00;82.40;;;;;;4983600;28;20192;-88
2021/01/29 04:42:56;;;;;;;0.60;0.60;;;13.00;82.40;;;;;;4978947;28;20239;-88
2021/01/29 04:45:27;;;;;;;0.80;0.80;;;13.10;82.70;;;;;;4960578;28;20168;-89
2021/01/29 04:48:13;;;;;;;1.10;1.00;;;13.00;82.60;;;;;;4972613;28;20195;-90
2021/01/29 04:51:07;;;;;;;10.77;1.00;;;13.10;82.80;;;;;;4981132;28;20160;-91
2021/01/29 04:53:44;;;;;;;1.08;0.70;;;13.10;82.90;;;;;;4981547;28;20168;-89
2021/01/29 04:56:32;;;;;;;1.10;1.10;;;13.10;83.00;;;;;;4981931;28;20174;-90
2021/01/29 04:59:29;;;;;;;0.93;0.93;;;13.10;82.90;;;;;;4975577;28;20188;-92
2021/01/29 05:02:18;;;;;;;5.03;1.58;;;13.10;83.10;;;;;;4986708;28;20235;-90
2021/01/29 05:05:08;;;;;;;2.63;2.42;;;13.10;83.00;;;;;;5002528;28;20164;-88
2021/01/29 05:08:09;;;;;;;2.17;1.83;;;13.10;82.80;;;;;;5002819;28;20174;-88
2021/01/29 05:10:54;;;;;;;1.50;1.25;;;13.10;83.00;;;;;;5001552;28;20171;-92
2021/01/29 05:13:32;;;;;;;6.22;2.75;;;13.10;82.90;;;;;;5000311;28;20179;-90
2021/01/29 05:16:04;;;;;;;2.05;1.55;;;13.10;83.00;;;;;;5000297;28;20159;-92
2021/01/29 05:18:41;;;;;;;1.13;1.02;;;13.10;83.00;;;;;;4996556;28;20171;-88
2021/01/29 05:21:24;;;;;;;0.77;0.65;;;13.20;82.90;;;;;;4980078;28;20199;-88
2021/01/29 05:24:37;;;;;;;2.28;2.13;;;13.10;82.70;;;;;;4977538;28;20194;-89
2021/01/29 05:27:40;;;;;;;1.20;1.00;;;13.10;82.60;;;;;;4960044;28;20207;-88
2021/01/29 05:30:28;;;;;;;1.75;1.25;;;13.00;82.40;;;;;;4962326;28;20238;-88
2021/01/29 05:33:24;;;;;;;1.73;0.90;;;13.00;82.70;;;;;;4963574;28;20179;-88
2021/01/29 05:36:38;;;;;;;1.05;0.60;;;13.00;82.60;;;;;;4963997;28;20172;-88
2021/01/29 05:39:35;;;;;;;1.35;1.27;;;13.00;82.60;;;;;;4895790;28;20216;-88
2021/01/29 05:42:06;;;;;;;1.48;1.30;;;13.00;82.70;;;;;;4984630;28;20211;-88
2021/01/29 05:44:38;;;;;;;26.17;2.00;;;13.00;82.60;;;;;;4969205;28;20180;-88
2021/01/29 05:47:27;;;;;;;1.63;1.40;;;12.90;82.60;;;;;;4964348;28;20183;-88
2021/01/29 05:50:20;;;;;;;0.70;0.70;;;12.90;82.40;;;;;;4959223;28;20187;-89
2021/01/29 05:53:21;;;;;;;1.00;0.80;;;12.90;82.40;;;;;;4971480;28;20199;-89
2021/01/29 05:56:01;;;;;;;2.20;2.10;;;12.90;82.50;;;;;;4977381;28;20168;-89
2021/01/29 05:58:36;;;;;;;2.42;1.67;;;12.90;82.60;;;;;;4993440;28;20175;-89
2021/01/29 06:01:07;;;;;;;1.33;1.23;;;12.90;82.90;;;;;;4974119;28;20179;-88
2021/01/29 06:04:03;;;;;;;1.20;1.02;;;12.90;82.60;;;;;;4963805;28;20168;-88
2021/01/29 06:06:44;;;;;;;0.85;0.80;;;12.90;82.70;;;;;;4962819;28;20220;-89
2021/01/29 06:09:50;;;;;;;4.20;2.30;;;12.80;82.30;;;;;;4963131;28;20218;-89
2021/01/29 06:12:52;;;;;;;5.78;2.35;;;12.90;82.50;;;;;;4962368;28;20207;-88
2021/01/29 06:15:17;;;;;;;1.25;1.15;;;12.90;82.40;;;;;;4980881;28;20190;-89
2021/01/29 06:18:11;;;;;;;1.90;1.77;;;12.80;82.10;;;;;;4962645;28;20176;-89
2021/01/29 06:21:19;;;;;;;1.42;1.38;;;12.80;82.10;;;;;;4979214;28;20200;-88
2021/01/29 06:24:03;;;;;;;1.00;0.90;;;12.80;81.60;;;;;;4966145;28;20203;-88
2021/01/29 06:26:48;;;;;;;2.25;1.02;;;12.80;81.60;;;;;;4964580;28;20187;-89
2021/01/29 06:29:58;;;;;;;0.80;0.80;;;12.80;81.40;;;;;;4974811;28;20219;-89
2021/01/29 06:33:13;;;;;;;0.60;0.60;;;12.80;81.50;;;;;;4906120;29;20218;-88
2021/01/29 06:36:00;;;;;;;0.90;0.90;;;12.80;81.50;;;;;;4930606;28;20194;-90
2021/01/29 06:38:41;;;;;;;1.35;1.25;;;12.80;81.20;;;;;;4982797;28;20179;-88
2021/01/29 06:41:48;;;;;;;0.80;0.80;;;12.80;81.00;;;;;;4969403;28;20203;-88
2021/01/29 06:44:37;;;;;;;1.25;1.15;;;12.80;80.90;;;;;;4962263;28;20184;-88
2021/01/29 06:47:41;;;;;;;9.15;2.17;;;12.70;80.80;;;;;;4962012;28;20215;-89
2021/01/29 06:50:22;;;;;;;6.90;2.35;;;12.70;80.50;;;;;;4962085;28;20188;-87
2021/01/29 06:52:59;;;;;;;5.47;1.60;;;12.70;80.60;;;;;;4964546;28;20262;-88
2021/01/29 06:56:10;;;;;;;3.20;1.30;;;12.70;80.50;;;;;;4965056;28;20952;-88
2021/01/29 06:58:54;;;;;;;2.03;1.65;;;12.70;80.30;;;;;;4961282;28;20188;-88
2021/01/29 07:01:29;;;;;;;0.98;0.98;;;12.60;80.20;;;;;;4963552;28;20566;-88
2021/01/29 07:04:36;;;;;;;1.33;1.23;;;12.60;79.80;;;;;;4961967;28;20182;-89
2021/01/29 07:07:12;;;;;;;0.93;0.93;;;12.60;79.70;;;;;;4952876;28;20266;-89
2021/01/29 07:10:09;;;;;;;1.08;0.98;;;12.60;79.60;;;;;;4980541;28;20270;-88
2021/01/29 07:13:08;;;;;;;0.90;0.90;;;12.50;79.80;;;;;;4993256;28;20214;-91
2021/01/29 07:15:49;;;;;;;3.45;1.25;;;12.50;79.60;;;;;;4977924;28;20172;-91
2021/01/29 07:18:46;;;;;;;1.38;0.65;;;12.60;79.50;;;;;;4978914;28;20219;-92
2021/01/29 07:21:50;;;;;;;0.60;0.60;;;12.60;79.50;;;;;;4973720;28;20211;-91
2021/01/29 07:24:50;;;;;;;0.63;0.60;;;12.50;79.00;;;;;;4885782;29;20278;-92
2021/01/29 07:27:28;;;;;;;0.73;0.73;;;12.50;79.20;;;;;;4886823;29;20179;-91
2021/01/29 07:30:11;;;;;;;1.60;1.10;;;12.50;79.00;;;;;;4945476;28;20183;-91
2021/01/29 07:32:58;;;;;;;0.60;0.50;;;12.50;79.20;;;;;;4980683;28;20203;-92
2021/01/29 07:35:52;;;;;;;1.25;0.82;;;12.60;79.20;;;;;;4963058;28;20184;-92
2021/01/29 07:38:34;;;;;;;0.90;0.90;;;12.60;78.80;;;;;;4999320;23;20240;-96
2021/01/29 07:41:18;;;;;;;2.35;2.20;;;12.50;78.40;;;;;;4948548;28;20212;-92
2021/01/29 07:43:51;;;;;;;0.90;0.90;;;12.60;78.40;;;;;;4949396;28;20712;-93
2021/01/29 07:46:51;;;;;;;3.63;1.25;;;12.50;78.10;;;;;;4944530;29;20208;-91
2021/01/29 07:49:26;;;;;;;2.88;1.08;;;12.50;77.80;;;;;;4935560;29;20197;-91
2021/01/29 07:52:18;;;;;;;1.10;1.00;;;12.50;77.90;;;;;;4940777;29;20205;-91
2021/01/29 07:55:02;;;;;;;1.05;1.05;;;12.50;77.50;;;;;;4941129;29;20227;-89
2021/01/29 07:57:55;;;;;;;16.30;2.35;;;12.50;77.40;;;;;;4938934;29;20189;-91
2021/01/29 08:00:59;;;;;;;4.82;2.30;;;12.60;77.80;;;;;;4939449;29;20212;-91
2021/01/29 08:03:40;;;;;;;0.80;0.80;;;12.60;78.10;;;;;;4932787;29;20181;-86
2021/01/29 08:06:05;;;;;;;2.22;2.03;;;12.60;77.30;;;;;;4938750;29;20248;-89
2021/01/29 08:08:37;;;;;;;0.70;0.70;;;12.60;77.20;;;;;;4940598;29;20272;-88
2021/01/29 08:11:08;;;;;;;1.70;0.93;;;12.60;76.40;;;;;;4951560;29;20208;-88
2021/01/29 08:13:46;;;;;;;1.70;1.08;;;12.70;77.10;;;;;;4959031;29;20587;-87
2021/01/29 08:16:47;;;;;;;0.85;0.85;;;12.80;77.40;;;;;;4949795;29;20183;-86
2021/01/29 08:19:16;;;;;;;1.50;1.40;;;12.80;77.10;;;;;;4938462;29;20196;-87
2021/01/29 08:21:48;;;;;;;1.25;1.00;;;12.80;76.20;;;;;;4938984;29;20671;-89
2021/01/29 08:24:38;;;;;;;0.70;0.70;;;12.80;76.10;;;;;;4939878;29;20700;-85
2021/01/29 08:27:42;;;;;;;1.50;0.70;;;12.80;76.30;;;;;;4955968;29;20184;-86
2021/01/29 08:30:29;;;;;;;1.20;1.20;;;12.90;76.60;;;;;;4965293;28;20188;-87
2021/01/29 08:33:32;;;;;;;0.60;0.60;;;12.90;76.30;;;;;;4960649;28;20169;-85
2021/01/29 08:36:04;;;;;;;0.90;0.90;;;13.00;76.30;;;;;;4945898;28;20195;-85
2021/01/29 08:38:54;;;;;;;3.55;0.90;;;13.00;75.70;;;;;;4941820;29;20291;-85
2021/01/29 08:41:32;;;;;;;0.90;0.90;;;13.00;75.50;;;;;;4944124;29;20197;-84
2021/01/29 08:44:15;;;;;;;0.82;0.82;;;13.10;75.80;;;;;;4957350;29;20189;-82
2021/01/29 08:47:15;;;;;;;7.05;2.78;;;13.20;75.70;;;;;;4943085;29;20165;-84
2021/01/29 08:49:45;;;;;;;7.43;3.17;;;13.30;75.90;;;;;;4909361;29;20188;-83
2021/01/29 08:52:32;;;;;;;1.35;1.25;;;13.30;75.40;;;;;;4944295;29;20312;-86
2021/01/29 08:55:35;;;;;;;1.20;1.10;;;13.30;75.10;;;;;;4943268;29;20189;-86
2021/01/29 08:58:13;;;;;;;1.80;0.75;;;13.30;75.20;;;;;;4949566;29;20168;-86
2021/01/29 09:00:41;;;;;;;2.25;1.00;;;13.30;74.70;;;;;;4959359;28;20264;-86
2021/01/29 09:03:30;;;;;;;2.20;1.10;;;13.20;74.80;;;;;;4946108;29;20177;-88
2021/01/29 09:06:18;;;;;;;1.25;1.15;;;13.20;74.50;;;;;;4941159;29;20211;-86
2021/01/29 09:08:44;;;;;;;1.50;1.40;;;13.10;74.80;;;;;;4939816;29;20192;-85
2021/01/29 09:11:10;;;;;;;0.70;0.70;;;13.10;74.60;;;;;;4939741;29;20232;-87
2021/01/29 09:13:40;;;;;;;2.00;1.90;;;13.20;75.10;;;;;;4938956;29;20185;-86
2021/01/29 09:16:26;;;;;;;0.70;0.63;;;13.10;74.50;;;;;;4938958;29;20926;-88
2021/01/29 09:19:12;;;;;;;4.72;1.83;;;13.10;74.40;;;;;;4918590;29;20216;-85
2021/01/29 09:21:55;;;;;;;0.73;0.73;;;13.00;74.20;;;;;;4919006;29;20690;-85
2021/01/29 09:24:24;;;;;;;1.58;1.48;;;13.00;74.60;;;;;;4922920;29;20189;-85
2021/01/29 09:27:05;;;;;;;9.57;1.63;;;13.00;74.70;;;;;;4917431;29;20173;-85
2021/01/29 09:29:44;;;;;;;0.60;0.60;;;13.10;75.00;;;;;;4922315;29;20187;-84
2021/01/29 09:32:15;;;;;;;3.55;1.83;;;13.20;75.20;;;;;;4937079;29;20357;-85
2021/01/29 09:34:48;;;;;;;0.90;0.70;;;13.10;75.00;;;;;;4937222;29;20663;-84
2021/01/29 09:37:19;;;;;;;1.40;1.13;;;13.10;74.60;;;;;;4936717;29;20562;-84
2021/01/29 09:40:01;;;;;;;4.72;0.80;;;13.20;74.50;;;;;;4936835;29;20228;-84
2021/01/29 09:42:26;;;;;;;2.40;2.00;;;13.20;74.90;;;;;;4936420;29;20287;-83
2021/01/29 09:45:00;;;;;;;1.67;0.80;;;13.20;74.70;;;;;;4936258;29;20217;-85
2021/01/29 09:47:28;;;;;;;0.73;0.73;;;13.30;75.00;;;;;;4936389;29;20181;-86
2021/01/29 09:50:06;;;;;;;1.10;1.00;;;13.40;75.50;;;;;;4938518;29;20224;-86
2021/01/29 09:53:07;;;;;;;0.90;0.90;;;13.50;75.80;;;;;;4937009;29;20708;-88
2021/01/29 09:55:54;;;;;;;7.03;1.30;;;13.60;74.70;;;;;;4845985;29;20691;-89
2021/01/29 09:58:40;;;;;;;2.17;1.02;;;13.70;74.40;;;;;;4932195;29;20193;-88
2021/01/29 10:01:13;;;;;;;1.00;1.00;;;13.80;73.80;;;;;;4938644;29;20205;-87
2021/01/29 10:03:51;;;;;;;3.20;0.85;;;13.90;73.30;;;;;;4938324;29;20192;-86
2021/01/29 10:06:26;;;;;;;0.90;0.90;;;14.00;73.50;;;;;;4937493;29;20169;-84
2021/01/29 10:08:58;;;;;;;3.28;1.10;;;14.20;72.80;;;;;;4938046;29;20188;-85
2021/01/29 10:11:40;;;;;;;1.83;0.95;;;14.20;71.70;;;;;;4937601;29;20224;-85
2021/01/29 10:14:24;;;;;;;0.68;0.68;;;14.40;72.00;;;;;;4946233;29;20181;-86
2021/01/29 10:17:01;;;;;;;1.42;1.20;;;14.50;71.80;;;;;;4939572;29;20598;-85
2021/01/29 10:19:50;;;;;;;0.60;0.55;;;14.60;70.60;;;;;;4926612;29;20210;-84
2021/01/29 10:22:41;;;;;;;1.77;1.13;;;14.60;70.10;;;;;;4922009;29;20237;-83
2021/01/29 10:25:15;;;;;;;2.72;1.17;;;14.60;69.60;;;;;;4922962;29;20685;-82
2021/01/29 10:27:50;;;;;;;0.85;0.85;;;14.70;69.80;;;;;;4921546;29;20172;-82
2021/01/29 10:30:33;;;;;;;1.50;1.10;;;14.70;70.00;;;;;;4930910;29;20275;-84
2021/01/29 10:33:22;;;;;;;0.60;0.60;;;14.70;69.40;;;;;;4941259;29;20173;-85
2021/01/29 10:36:05;;;;;;;2.30;2.20;;;14.80;70.10;;;;;;4932655;29;20189;-86
2021/01/29 10:38:45;;;;;;;1.90;1.33;;;14.90;70.60;;;;;;4937470;29;20569;-88
2021/01/29 10:41:36;;;;;;;0.60;0.60;;;14.90;70.20;;;;;;4937065;29;20714;-86
2021/01/29 10:44:02;;;;;;;0.60;0.60;;;14.90;69.70;;;;;;4935989;29;20189;-88
2021/01/29 10:46:55;;;;;;;8.23;1.40;;;14.90;69.70;;;;;;4941768;29;20197;-89
2021/01/29 10:49:49;;;;;;;1.23;1.23;;;14.90;70.00;;;;;;4939318;29;20456;-90
2021/01/29 10:52:29;;;;;;;0.60;0.60;;;15.00;70.80;;;;;;4941992;29;20224;-92
2021/01/29 10:54:56;;;;;;;1.35;1.25;;;15.10;71.60;;;;;;4945380;29;20173;-91
2021/01/29 10:57:32;;;;;;;0.95;0.90;;;15.20;71.50;;;;;;4948273;29;20181;-92
2021/01/29 11:00:11;;;;;;;1.95;1.10;;;15.20;71.10;;;;;;4949500;29;20217;-92
2021/01/29 11:02:43;;;;;;;0.90;0.90;;;15.10;69.20;;;;;;4951604;29;20203;-91
2021/01/29 11:05:18;;;;;;;3.08;1.77;;;15.10;68.00;;;;;;4953977;29;20237;-91
2021/01/29 11:07:48;;;;;;;0.60;0.60;;;15.00;66.50;;;;;;4941437;29;20184;-92
2021/01/29 11:10:20;;;;;;;26.15;1.95;;;15.00;67.60;;;;;;4940485;29;20181;-92
2021/01/29 11:13:03;;;;;;;0.80;0.80;;;15.10;68.10;;;;;;4940347;29;20208;-91
2021/01/29 11:15:39;;;;;;;0.80;0.70;;;15.20;67.30;;;;;;4940947;29;20181;-91
2021/01/29 11:18:16;;;;;;;7.28;3.10;;;15.30;67.80;;;;;;4941995;29;20173;-91
2021/01/29 11:20:42;;;;;;;1.80;0.90;;;15.40;67.30;;;;;;4942548;29;20296;-90
2021/01/29 11:23:27;;;;;;;0.60;0.60;;;15.50;65.70;;;;;;4941589;29;20320;-90
2021/01/29 11:26:25;;;;;;;0.60;0.60;;;15.70;66.00;;;;;;4940210;29;20416;-90
2021/01/29 11:29:12;;;;;;;0.60;0.60;;;15.70;64.30;;;;;;4940459;29;20190;-90
2021/01/29 11:32:01;;;;;;;0.80;0.80;;;15.90;65.30;;;;;;4928909;29;20197;-90
2021/01/29 11:34:30;;;;;;;8.68;1.75;;;16.00;64.20;;;;;;4941898;29;20200;-91
2021/01/29 11:37:16;;;;;;;0.80;0.80;;;16.00;63.70;;;;;;4940077;29;20185;-90
2021/01/29 11:39:57;;;;;;;1.27;1.17;;;16.00;63.70;;;;;;4939138;29;20201;-90
2021/01/29 11:42:31;;;;;;;1.13;0.70;;;16.00;64.20;;;;;;4938709;29;20201;-89
2021/01/29 11:45:05;;;;;;;0.70;0.70;;;16.00;62.40;;;;;;4939390;29;20180;-89
2021/01/29 11:47:46;;;;;;;3.05;0.80;;;16.00;63.30;;;;;;4938597;29;20166;-89
2021/01/29 11:50:26;;;;;;;2.05;1.67;;;16.00;62.80;;;;;;4940717;29;20166;-90
2021/01/29 11:53:07;;;;;;;1.13;0.82;;;16.00;63.20;;;;;;4937910;29;20209;-89
2021/01/29 11:55:45;;;;;;;0.85;0.85;;;15.90;62.40;;;;;;4944772;29;20200;-89
2021/01/29 11:58:29;;;;;;;0.60;0.57;;;15.90;64.10;;;;;;4942492;29;20228;-92
2021/01/29 12:01:17;;;;;;;0.70;0.70;;;16.00;64.00;;;;;;4934149;29;20225;-91
2021/01/29 12:07:21;;;;;;;1.50;1.40;;;16.10;64.30;;;;;;4934449;29;20224;-91
2021/01/29 12:10:08;;;;;;;2.53;2.33;;;16.00;63.20;;;;;;4937537;29;20553;-90
2021/01/29 12:12:56;;;;;;;0.80;0.80;;;16.00;62.30;;;;;;4938233;29;20333;-91
2021/01/29 12:15:44;;;;;;;2.97;1.00;;;15.90;62.20;;;;;;4938697;29;20653;-92
2021/01/29 12:18:12;;;;;;;0.70;0.60;;;15.90;63.00;;;;;;4939503;29;20188;-93
2021/01/29 12:20:41;;;;;;;1.20;1.10;;;15.90;63.50;;;;;;4938627;29;20220;-91
2021/01/29 12:23:07;;;;;;;4.97;1.98;;;15.90;62.20;;;;;;4946307;29;20177;-91
2021/01/29 12:26:09;;;;;;;1.13;1.00;;;16.00;63.10;;;;;;4958036;28;20185;-91
2021/01/29 12:29:03;;;;;;;1.63;0.95;;;16.10;61.70;;;;;;4921621;29;20836;-91
2021/01/29 12:31:44;;;;;;;3.65;1.38;;;16.30;61.50;;;;;;4938036;29;20688;-91
2021/01/29 12:34:30;;;;;;;0.70;0.60;;;16.50;62.00;;;;;;4941394;29;20551;-91
2021/01/29 12:37:12;;;;;;;14.27;1.00;;;16.60;62.30;;;;;;4937473;29;20166;-90
2021/01/29 12:40:11;;;;;;;1.60;1.45;;;16.70;61.00;;;;;;4937318;29;20224;-90
2021/01/29 12:42:49;;;;;;;0.73;0.70;;;16.50;59.40;;;;;;4940175;29;20240;-91
2021/01/29 12:45:21;;;;;;;0.60;0.50;;;16.30;58.80;;;;;;4943737;29;20185;-86
2021/01/29 12:47:55;;;;;;;0.60;0.60;;;15.90;62.20;;;;;;4939957;29;20719;-87
2021/01/29 12:50:59;;;;;;;5.30;0.88;;;15.50;63.10;;;;;;4958889;29;20162;-87
2021/01/29 12:53:35;;;;;;;10.25;2.67;;;15.20;64.70;;;;;;4950690;28;20189;-87
2021/01/29 12:56:12;;;;;;;5.30;0.80;;;14.80;66.70;;;;;;4940385;29;20224;-87
2021/01/29 12:58:41;;;;;;;8.52;0.95;;;14.60;68.30;;;;;;4940748;29;20188;-88
2021/01/29 13:01:14;;;;;;;1.00;0.77;;;14.40;69.40;;;;;;4939596;29;20287;-87
2021/01/29 13:04:24;;;;;;;0.60;0.60;;;14.20;70.50;;;;;;4936359;29;20642;-88
2021/01/29 13:07:12;;;;;;;5.88;2.75;;;14.10;71.90;;;;;;4905074;29;20181;-88
2021/01/29 13:09:55;;;;;;;30.35;1.27;;;14.00;72.80;;;;;;4939548;29;20173;-88
2021/01/29 13:12:27;;;;;;;1.23;1.10;;;13.90;72.90;;;;;;4940246;29;20212;-88
2021/01/29 13:15:23;;;;;;;17.10;1.88;;;13.80;73.20;;;;;;4939872;29;20756;-89
2021/01/29 13:18:01;;;;;;;0.90;0.90;;;13.70;73.40;;;;;;4936760;29;20560;-89
2021/01/29 13:20:34;;;;;;;6.18;1.23;;;13.60;74.00;;;;;;4931892;29;20684;-88
2021/01/29 13:23:38;;;;;;;5.00;1.33;;;13.60;74.40;;;;;;4940738;29;20208;-89
2021/01/29 13:26:11;;;;;;;10.30;1.40;;;13.50;74.30;;;;;;4934470;29;20185;-89
2021/01/29 13:28:40;;;;;;;2.25;1.08;;;13.40;74.10;;;;;;4931258;29;20213;-88
2021/01/29 13:31:26;;;;;;;0.80;0.75;;;13.30;74.20;;;;;;4931139;29;20616;-87
2021/01/29 13:33:55;;;;;;;0.60;0.60;;;13.30;74.30;;;;;;4930361;29;20809;-86
2021/01/29 13:36:27;;;;;;;13.10;1.30;;;13.20;75.00;;;;;;4941262;29;20185;-86
2021/01/29 13:39:05;;;;;;;1.58;1.50;;;13.20;75.50;;;;;;4933039;29;20212;-86
2021/01/29 13:41:45;;;;;;;0.60;0.60;;;13.20;76.20;;;;;;4928452;29;20554;-87
2021/01/29 13:44:33;;;;;;;0.98;0.80;;;13.30;76.80;;;;;;4931892;29;20169;-89
2021/01/29 13:46:59;;;;;;;0.70;0.70;;;13.30;77.10;;;;;;4936639;29;20231;-86
2021/01/29 13:49:38;;;;;;;0.60;0.60;;;13.40;77.00;;;;;;4930943;29;20189;-87
2021/01/29 13:52:19;;;;;;;1.23;1.20;;;13.50;76.60;;;;;;4930958;29;20197;-87
2021/01/29 13:54:45;;;;;;;0.60;0.60;;;13.60;76.30;;;;;;4938116;29;20262;-86
2021/01/29 13:57:32;;;;;;;2.10;0.70;;;13.50;75.70;;;;;;4932257;29;20185;-87